Sligo Airport - TAF
(Terminal Area Forecast)

Issued at 01:36 UTC on Mon. 16-Dec-19

--- METARS(SA) ---

METAR EISG(SLIGO) 160130Z AUTO 24007KT 9999 FEW027 SCT034 04/03

Q0988 =

--- TAFS() ---

TAF EISG(SLIGO) 152300Z 1600/1609 VRB03KT 9999 FEW012 SCT025 BECMG

1601/1604 24012KT BECMG 1607/1609 20011KT =

--- SIGMETS(WS) ---

IE - No VALID SIGMETS/Warnings FOR THIS AREA

--- SIGMETS Volcanic(WV) ---

IE - No VALID SIGMETS/Warnings FOR THIS AREA

--- SIGMETS(WS) ---

UK - No VALID SIGMETS/Warnings FOR THIS AREA

Sligo Airport - METARs

Latest METARs for Sligo and Donegal Airports - updated every 30 mins